Morania No 6 — WBQ7544 — position and weather

sailwx.info

Track history (hours):
 
Tides and Currents Weather Stations Pressure Air Temp Water Temp Dewpoint Dewpoint Depression Visibility Wind Speed Wind Dir Waves Ship Positions

Morania No 6

More information available from US FCC via Universal Licensing System and Coast Guard Vessel Documentation Center.

Last reported at 2014-Aug-12 23:10 UTC. Time now 2014-Aug-23 19:22 UTC.
Position N 29°21' W 094°44'.
Warning: this ship's position is 10 days out of date.

Length 45 m; draft 5.2 m.

MMSI: 366920970.

Date/timePositionNaut miles runAvg speedWind from/ knotsBaromVisibWave heightAir tempDewpointWater temp
2014-Aug-12 23:10N 29°21' W 094°44'5 7.5
2014-Aug-12 22:32N 29°23' W 094°49'9 9.1
2014-Aug-12 21:33N 29°31' W 094°53'9 8.8
2014-Aug-12 20:33N 29°39' W 094°58'8 8.3
2014-Aug-12 19:33N 29°45' W 095°04'2 2.0
2014-Aug-12 18:33N 29°45' W 095°06'0 0.0
2014-Aug-12 17:33N 29°45' W 095°06'0 0.0
2014-Aug-12 16:33N 29°45' W 095°06'0 0.0
2014-Aug-12 15:33N 29°45' W 095°06'0 0.0
2014-Aug-12 14:33N 29°45' W 095°06'0 0.0
2014-Aug-12 13:33N 29°45' W 095°06'0 0.0
2014-Aug-12 12:33N 29°45' W 095°06'0 0.0
2014-Aug-12 11:33N 29°45' W 095°06'0 0.0
2014-Aug-12 10:33N 29°45' W 095°06'0 0.0
2014-Aug-12 09:33N 29°45' W 095°06'0 0.0
2014-Aug-12 08:33N 29°45' W 095°06'0 0.0
2014-Aug-12 07:33N 29°45' W 095°06'0 0.0
2014-Aug-12 06:33N 29°45' W 095°06'0 0.0
2014-Aug-12 05:33N 29°45' W 095°06'0 0.0
2014-Aug-12 04:33N 29°45' W 095°06'0 0.0
2014-Aug-12 03:33N 29°45' W 095°06'0 0.0
2014-Aug-12 02:33N 29°45' W 095°06'0 0.0
2014-Aug-12 01:33N 29°45' W 095°06'0 0.0
2014-Aug-12 00:33N 29°45' W 095°06'1 0.7
2014-Aug-11 23:33N 29°45' W 095°06'6 6.2
2014-Aug-11 22:33N 29°42' W 094°60'8 7.9
2014-Aug-11 21:33N 29°35' W 094°56'  
2014-Aug-03 11:32N 29°22' W 094°51'  
Track history (hours):
 
Tides and Currents Weather Stations Pressure Air Temp Water Temp Dewpoint Dewpoint Depression Visibility Wind Speed Wind Dir Waves Ship Positions

Morania No 6

More information available from US FCC via Universal Licensing System and Coast Guard Vessel Documentation Center.

Last reported at 2014-Aug-12 23:10 UTC. Time now 2014-Aug-23 19:22 UTC.
Position N 29°21' W 094°44'.
Warning: this ship's position is 10 days out of date.

Length 45 m; draft 5.2 m.

MMSI: 366920970.

Date/timePositionNaut miles runAvg speedWind from/ knotsBaromVisibWave heightAir tempDewpointWater temp
2014-Aug-12 23:10N 29°21' W 094°44'5 7.5
2014-Aug-12 22:32N 29°23' W 094°49'9 9.1
2014-Aug-12 21:33N 29°31' W 094°53'9 8.8
2014-Aug-12 20:33N 29°39' W 094°58'8 8.3
2014-Aug-12 19:33N 29°45' W 095°04'2 2.0
2014-Aug-12 18:33N 29°45' W 095°06'0 0.0
2014-Aug-12 17:33N 29°45' W 095°06'0 0.0
2014-Aug-12 16:33N 29°45' W 095°06'0 0.0
2014-Aug-12 15:33N 29°45' W 095°06'0 0.0
2014-Aug-12 14:33N 29°45' W 095°06'0 0.0
2014-Aug-12 13:33N 29°45' W 095°06'0 0.0
2014-Aug-12 12:33N 29°45' W 095°06'0 0.0
2014-Aug-12 11:33N 29°45' W 095°06'0 0.0
2014-Aug-12 10:33N 29°45' W 095°06'0 0.0
2014-Aug-12 09:33N 29°45' W 095°06'0 0.0
2014-Aug-12 08:33N 29°45' W 095°06'0 0.0
2014-Aug-12 07:33N 29°45' W 095°06'0 0.0
2014-Aug-12 06:33N 29°45' W 095°06'0 0.0
2014-Aug-12 05:33N 29°45' W 095°06'0 0.0
2014-Aug-12 04:33N 29°45' W 095°06'0 0.0
2014-Aug-12 03:33N 29°45' W 095°06'0 0.0
2014-Aug-12 02:33N 29°45' W 095°06'0 0.0
2014-Aug-12 01:33N 29°45' W 095°06'0 0.0
2014-Aug-12 00:33N 29°45' W 095°06'1 0.7
2014-Aug-11 23:33N 29°45' W 095°06'6 6.2
2014-Aug-11 22:33N 29°42' W 094°60'8 7.9
2014-Aug-11 21:33N 29°35' W 094°56'  
2014-Aug-03 11:32N 29°22' W 094°51'  

Dump ship's entire track history